Aérodrome :
LOGIN :

S'inscrire | Disclaimer

   EN    FR    IT 

 










Légende :    VFR   VFR Marginal   IFR   IFR Intensif   IFR Très Intensif
Visi : 
Plafond : 
>= 8 km
>= 3000ft
5 à 8 km
1000 à 3000 ft
1500m à 5 km
500 à 1000 ft
800 à 1500m
200 à 500 ft
< 800m
< 200 ft
Symboles :   Orages  Brouillard  Fortes neiges  Fortes précipitations  Vent > 20 kt
SIGMETs :   Divers  Orages  Givrage  Turbulence  Onde Orograph.  Cendres Volcan.







- Altitude de l'aérodrome : 885 ft
- Code IATA : BAS
- Voir les cartes d'approche


LFSB - Bale-Mulhouse

DERNIER METAR :
  • 280730Z 13007KT 110V170 9999 FEW010 SCT040 BKN073 04/02 Q1001 NOSIG

METARs EXPIRÉS :
  • 280700Z 12007KT 090V150 9999 FEW010 BKN070 04/03 Q1002 NOSIG
  • 280630Z 12004KT 070V150 9999 -RA FEW010 BKN036 BKN073 04/03 Q1002 NOSIG
  • 280600Z 16007KT 130V190 9999 FEW013 BKN060 BKN080 04/02 Q1002 NOSIG
  • 280530Z 16007KT 9999 -RA FEW013 BKN036 BKN073 03/02 Q1001 NOSIG
  • 280500Z 17006KT 140V220 9999 -RA FEW010 BKN025 03/02 Q1002 NOSIG
  • 280430Z 22004KT 170V270 9999 -RA SCT010 BKN020 03/01 Q1003 TEMPO 4000 RA

TAF AMD TAF LFSB
Valide du 28 à 06h jusqu'au 01 à 06h UTC


280531Z 2806/0106 16006KT 9999 -RA BKN025
BECMG 2806/2808 NSW SCT050
BECMG 2812/2814 24015G25KT
TEMPO 2812/2821 26020G35KT 4000 SHRA SCT040TCU
PROB40
TEMPO 2812/2819 29025G50KT 2000 TSRAGS BKN020 SCT030CB
TEMPO 2821/0106 -SHRA BKN025
Météo : +33 3 89 90 31 11
Pas de NOTAMs connus pour ce terrain.



MET'MAP, la Météo Aéronautique d'un coup d'oeil ! - Copyright ORBIFLY Décembre 2007 - Disclaimer

ORBIFLY MET'MAP TEAM :

Programmation & Développement : Alexandra Zaïnal
Conception & Développement : Baudouin d'Aumeries
Co-Programmation & Développement : Marc-Olivier Méhu
Soutien technique & logistique : Manuel Goepfert

Contact : metmap@orbifly.com




SOURCES & CREDITS :

   NOAA